createdAt,value
2023-01-19T00:03:53.879Z,11.77
2023-01-19T00:08:57.267Z,11.48
2023-01-19T00:14:01.306Z,18.98
2023-01-19T00:19:10.852Z,12.48
2023-01-19T00:24:12.296Z,18.90
2023-01-19T00:29:23.630Z,17.58
2023-01-19T00:34:27.451Z,15.77
2023-01-19T00:39:38.002Z,20.67
2023-01-19T00:44:41.898Z,18.23
2023-01-19T00:49:48.581Z,15.05
2023-01-19T00:54:50.824Z,12.52
2023-01-19T00:59:53.657Z,15.30
2023-01-19T01:04:55.091Z,12.38
2023-01-19T01:10:02.481Z,12.98
2023-01-19T01:15:05.900Z,18.63
2023-01-19T01:20:07.935Z,12.30
2023-01-19T01:25:09.544Z,13.63
2023-01-19T01:35:41.963Z,11.77
2023-01-19T01:40:48.368Z,11.73
2023-01-19T01:45:49.897Z,10.55
2023-01-19T01:50:59.263Z,10.13
2023-01-19T01:56:03.478Z,12.70
2023-01-19T02:01:10.532Z,9.18
2023-01-19T02:06:13.027Z,10.27
2023-01-19T02:11:24.731Z,11.85
2023-01-19T02:16:26.429Z,9.27
2023-01-19T02:21:38.672Z,9.48
2023-01-19T02:26:47.726Z,9.20
2023-01-19T02:31:53.885Z,8.18
2023-01-19T02:37:01.431Z,8.75
2023-01-19T02:47:46.872Z,8.73
2023-01-19T02:52:49.603Z,9.80
2023-01-19T02:58:20.425Z,10.35
2023-01-19T03:03:53.063Z,11.35
2023-01-19T03:09:20.921Z,11.52
2023-01-19T03:14:28.745Z,9.18
2023-01-19T03:19:37.585Z,8.85
2023-01-19T03:24:44.960Z,10.40
2023-01-19T03:30:00.648Z,11.18
2023-01-19T03:35:07.105Z,13.48
2023-01-19T03:40:10.037Z,10.60
2023-01-19T03:45:13.807Z,8.95
2023-01-19T03:50:25.434Z,13.98
2023-01-19T03:55:27.090Z,10.18
2023-01-19T04:00:31.343Z,10.02
2023-01-19T04:05:33.402Z,8.48
2023-01-19T04:10:35.073Z,7.57
2023-01-19T04:15:40.040Z,8.30
2023-01-19T04:20:41.738Z,10.85
2023-01-19T04:25:43.395Z,9.15
2023-01-19T04:31:07.894Z,10.88
2023-01-19T04:36:09.476Z,11.48
2023-01-19T04:41:11.168Z,8.43
2023-01-19T04:46:12.804Z,11.70
2023-01-19T04:51:39.101Z,11.45
2023-01-19T04:56:40.922Z,11.60
2023-01-19T05:01:42.697Z,13.35
2023-01-19T05:06:44.229Z,11.20
2023-01-19T05:11:45.760Z,11.20
2023-01-19T05:16:47.260Z,10.68
2023-01-19T05:21:48.776Z,12.15
2023-01-19T05:26:50.359Z,10.25
2023-01-19T05:31:53.157Z,10.88
2023-01-19T05:36:57.650Z,10.43
2023-01-19T05:41:59.115Z,12.13
2023-01-19T05:47:00.626Z,14.65
2023-01-19T05:52:02.266Z,12.07
2023-01-19T05:57:03.671Z,16.13
2023-01-19T06:02:05.247Z,12.18
2023-01-19T06:07:14.357Z,12.63
2023-01-19T06:17:44.270Z,23.08
2023-01-19T06:22:53.457Z,15.45
2023-01-19T06:27:55.148Z,16.23
2023-01-19T06:32:59.190Z,15.57
2023-01-19T06:38:01.116Z,17.95
2023-01-19T06:43:02.974Z,15.80
2023-01-19T06:48:16.714Z,14.73
2023-01-19T06:53:21.336Z,11.35
2023-01-19T06:58:22.959Z,14.98
2023-01-19T07:03:24.390Z,11.48
2023-01-19T07:08:25.961Z,9.82
2023-01-19T07:13:28.252Z,14.23
2023-01-19T07:18:29.738Z,14.02
2023-01-19T07:23:31.323Z,12.63
2023-01-19T07:28:33.265Z,16.20
2023-01-19T07:33:34.761Z,15.85
2023-01-19T07:38:37.387Z,14.60
2023-01-19T07:43:48.169Z,16.77
2023-01-19T07:48:49.755Z,16.17
2023-01-19T07:53:53.074Z,17.40
2023-01-19T07:58:54.521Z,19.40
2023-01-19T08:04:04.628Z,15.82
2023-01-19T08:37:00.208Z,16.67
2023-01-19T08:49:10.199Z,17.73
2023-01-19T09:12:12.554Z,19.52
2023-01-19T09:17:23.367Z,20.13
2023-01-19T09:33:08.892Z,26.58
2023-01-19T09:50:20.019Z,26.10
2023-01-19T09:55:28.341Z,22.15
2023-01-19T10:00:31.319Z,29.13
2023-01-19T10:05:41.376Z,21.83
2023-01-19T10:16:53.078Z,26.20
2023-01-19T10:27:42.054Z,32.58
2023-01-19T10:32:59.834Z,29.83
2023-01-19T10:38:03.437Z,33.40
2023-01-19T10:49:13.765Z,25.20
2023-01-19T11:00:34.970Z,29.45
2023-01-19T11:05:48.987Z,27.98
2023-01-19T11:11:46.429Z,29.35
2023-01-19T11:33:44.277Z,29.42
2023-01-19T11:38:47.448Z,40.38
2023-01-19T11:43:54.820Z,29.58
2023-01-19T11:49:05.585Z,28.60
2023-01-19T11:54:21.086Z,25.27
2023-01-19T11:59:22.722Z,31.20
2023-01-19T12:04:38.343Z,25.42
2023-01-19T12:09:48.647Z,25.50
2023-01-19T12:15:24.136Z,30.17
2023-01-19T12:20:54.520Z,23.23
2023-01-19T12:31:10.565Z,24.23
2023-01-19T12:36:30.446Z,25.10
2023-01-19T12:41:38.604Z,18.80
2023-01-19T12:47:00.235Z,27.10
2023-01-19T12:52:31.478Z,23.67
2023-01-19T12:57:49.354Z,18.05
2023-01-19T13:02:54.848Z,27.45
2023-01-19T13:08:02.392Z,23.35
2023-01-19T13:13:25.788Z,19.88
2023-01-19T13:18:33.140Z,17.98
2023-01-19T13:23:49.953Z,21.83
2023-01-19T13:28:57.900Z,24.30
2023-01-19T13:34:01.820Z,19.98
2023-01-19T13:39:06.435Z,25.95
2023-01-19T13:44:43.163Z,22.35
2023-01-19T13:49:46.431Z,32.55
2023-01-19T13:55:04.211Z,26.92
2023-01-19T14:00:16.105Z,21.10
2023-01-19T14:05:35.263Z,24.35
2023-01-19T14:10:55.914Z,29.55
2023-01-19T14:16:00.749Z,30.45
2023-01-19T14:21:10.789Z,30.67
2023-01-19T14:26:46.160Z,24.15
2023-01-19T14:31:50.403Z,24.25
2023-01-19T14:36:51.903Z,22.38
2023-01-19T14:41:55.131Z,28.55
2023-01-19T14:46:57.438Z,22.40
2023-01-19T14:52:01.683Z,22.00
2023-01-19T14:57:03.163Z,22.23
2023-01-19T15:02:04.705Z,19.67
2023-01-19T15:07:06.862Z,16.85
2023-01-19T15:12:13.375Z,19.20
2023-01-19T15:17:22.604Z,19.17
2023-01-19T15:22:25.892Z,18.23
2023-01-19T15:27:29.283Z,18.27
2023-01-19T15:32:30.765Z,16.33
2023-01-19T15:37:32.235Z,18.80
2023-01-19T15:42:33.683Z,25.85
2023-01-19T15:47:35.273Z,17.95
2023-01-19T15:52:36.763Z,20.27
2023-01-19T15:57:38.464Z,15.57
2023-01-19T16:02:40.093Z,19.30
2023-01-19T16:07:41.621Z,16.20
2023-01-19T16:12:46.742Z,19.52
2023-01-19T16:17:48.255Z,22.48
2023-01-19T16:22:49.751Z,16.65
2023-01-19T16:27:51.390Z,17.48
2023-01-19T16:32:52.837Z,14.30
2023-01-19T16:37:54.635Z,16.17
2023-01-19T16:42:55.993Z,12.82
2023-01-19T16:47:59.988Z,13.68
2023-01-19T16:53:01.581Z,17.70
2023-01-19T16:58:03.048Z,14.48
2023-01-19T17:03:04.479Z,14.15
2023-01-19T17:08:06.049Z,13.32
2023-01-19T17:13:07.441Z,15.80
2023-01-19T17:18:08.908Z,14.23
2023-01-19T17:23:12.634Z,14.40
2023-01-19T17:28:13.995Z,16.45
2023-01-19T17:33:15.444Z,15.40
2023-01-19T17:38:17.201Z,13.77
2023-01-19T17:43:18.603Z,11.70
2023-01-19T17:48:19.961Z,14.10
2023-01-19T17:53:21.384Z,12.73
2023-01-19T17:58:22.978Z,12.95
2023-01-19T18:03:24.777Z,10.43
2023-01-19T18:08:26.142Z,12.23
2023-01-19T18:13:28.572Z,12.48
2023-01-19T18:18:30.067Z,11.40
2023-01-19T18:23:31.792Z,15.10
2023-01-19T18:28:33.731Z,11.68
2023-01-19T18:33:35.413Z,11.40
2023-01-19T18:38:38.474Z,15.73
2023-01-19T18:43:40.207Z,13.90
2023-01-19T18:48:41.833Z,9.27
2023-01-19T18:53:43.986Z,11.13
2023-01-19T18:58:45.535Z,12.98
2023-01-19T19:03:47.204Z,10.73
2023-01-19T19:08:50.797Z,9.95
2023-01-19T19:13:54.969Z,12.82
2023-01-19T19:18:59.092Z,11.68
2023-01-19T19:24:00.538Z,10.02
2023-01-19T19:29:02.015Z,10.05
2023-01-19T19:34:03.652Z,12.00
2023-01-19T19:39:05.630Z,9.43
2023-01-19T19:44:07.141Z,13.20
2023-01-19T19:49:08.837Z,13.43
2023-01-19T19:54:10.525Z,13.38
2023-01-19T19:59:11.991Z,10.50
2023-01-19T20:04:13.638Z,13.98
2023-01-19T20:09:16.183Z,15.05
2023-01-19T20:14:17.636Z,11.07
2023-01-19T20:19:19.017Z,14.02
2023-01-19T20:24:20.743Z,10.73
2023-01-19T20:29:22.192Z,15.90
2023-01-19T20:34:27.337Z,19.23
2023-01-19T20:39:29.043Z,15.02
2023-01-19T20:44:30.561Z,15.23
2023-01-19T20:49:32.354Z,15.35
2023-01-19T20:54:34.666Z,18.10
2023-01-19T20:59:36.175Z,19.85
2023-01-19T21:04:39.120Z,16.63
2023-01-19T21:09:40.477Z,15.77
2023-01-19T21:14:42.176Z,19.50
2023-01-19T21:24:49.071Z,12.68
2023-01-19T21:29:50.519Z,13.95
2023-01-19T21:34:52.033Z,20.52
2023-01-19T21:39:53.418Z,18.50
2023-01-19T21:49:56.332Z,14.77
2023-01-19T21:54:57.854Z,15.25
2023-01-19T21:59:59.325Z,14.65
2023-01-19T22:05:01.261Z,15.23
2023-01-19T22:10:03.046Z,16.45
2023-01-19T22:15:04.953Z,17.10
2023-01-19T22:20:07.106Z,17.70
2023-01-19T22:25:09.725Z,18.17
2023-01-19T22:30:11.284Z,12.65
2023-01-19T22:35:12.954Z,15.18
2023-01-19T22:40:14.928Z,14.63
2023-01-19T22:45:16.395Z,16.27
2023-01-19T22:50:17.971Z,15.95
2023-01-19T22:55:19.348Z,13.25
2023-01-19T23:00:21.632Z,12.95
2023-01-19T23:05:23.083Z,17.00
2023-01-19T23:10:24.651Z,13.80
2023-01-19T23:15:26.118Z,14.38
2023-01-19T23:20:27.515Z,14.07
2023-01-19T23:25:31.330Z,15.15
2023-01-19T23:30:32.773Z,12.73
2023-01-19T23:35:34.776Z,15.07
2023-01-19T23:40:36.164Z,16.13
2023-01-19T23:45:37.801Z,18.27
2023-01-19T23:50:40.281Z,15.02
2023-01-19T23:55:41.991Z,15.98
